createdAt,value
2019-04-22T00:00:30.758Z,11.25
2019-04-22T00:03:01.536Z,11.21
2019-04-22T00:05:51.144Z,11.20
2019-04-22T00:08:19.719Z,11.17
2019-04-22T00:10:56.098Z,11.14
2019-04-22T00:13:26.361Z,11.09
2019-04-22T00:15:47.580Z,11.05
2019-04-22T00:18:19.902Z,11.02
2019-04-22T00:20:54.562Z,10.97
2019-04-22T00:23:24.076Z,10.92
2019-04-22T00:25:57.289Z,10.93
2019-04-22T00:28:24.972Z,10.88
2019-04-22T00:30:54.794Z,10.80
2019-04-22T00:33:20.416Z,10.73
2019-04-22T00:35:55.170Z,10.68
2019-04-22T00:40:52.579Z,10.66
2019-04-22T00:43:24.655Z,10.67
2019-04-22T00:45:57.839Z,10.63
2019-04-22T00:48:27.790Z,10.57
2019-04-22T00:51:01.642Z,10.47
2019-04-22T00:53:29.829Z,10.40
2019-04-22T00:56:03.054Z,10.35
2019-04-22T00:58:32.787Z,10.27
2019-04-22T01:01:09.089Z,10.22
2019-04-22T01:03:40.641Z,10.15
2019-04-22T01:06:04.580Z,10.09
2019-04-22T01:08:43.203Z,10.08
2019-04-22T01:11:13.568Z,10.04
2019-04-22T01:13:30.528Z,10.00
2019-04-22T01:16:09.347Z,9.92
2019-04-22T01:18:39.446Z,9.88
2019-04-22T01:21:17.778Z,9.85
2019-04-22T01:23:34.402Z,9.84
2019-04-22T01:26:05.309Z,9.85
2019-04-22T01:28:34.328Z,9.83
2019-04-22T01:31:01.990Z,9.81
2019-04-22T01:33:32.443Z,9.76
2019-04-22T01:36:15.049Z,9.71
2019-04-22T01:38:51.291Z,9.64
2019-04-22T01:41:25.313Z,9.61
2019-04-22T01:44:04.001Z,9.61
2019-04-22T01:46:29.463Z,9.61
2019-04-22T01:48:57.181Z,9.60
2019-04-22T01:51:35.439Z,9.57
2019-04-22T01:54:00.237Z,9.56
2019-04-22T01:56:20.510Z,9.54
2019-04-22T01:58:48.222Z,9.49
2019-04-22T02:01:25.274Z,9.43
2019-04-22T02:03:56.155Z,9.38
2019-04-22T02:06:21.925Z,9.32
2019-04-22T02:11:29.274Z,9.20
2019-04-22T02:13:56.369Z,9.18
2019-04-22T02:16:20.085Z,9.15
2019-04-22T02:18:53.068Z,9.12
2019-04-22T02:21:20.219Z,9.07
2019-04-22T02:26:25.772Z,9.08
2019-04-22T02:29:06.487Z,9.05
2019-04-22T02:36:29.505Z,8.98
2019-04-22T02:39:10.147Z,8.95
2019-04-22T02:46:53.236Z,8.93
2019-04-22T02:54:22.180Z,8.84
2019-04-22T02:56:34.140Z,8.80
2019-04-22T03:01:44.905Z,8.71
2019-04-22T03:09:03.440Z,8.65
2019-04-22T03:11:35.835Z,8.63
2019-04-22T03:14:01.361Z,8.58
2019-04-22T03:16:33.230Z,8.57
2019-04-22T03:21:31.301Z,8.51
2019-04-22T03:24:20.525Z,8.48
2019-04-22T03:26:31.927Z,8.44
2019-04-22T03:29:04.196Z,8.42
2019-04-22T03:32:17.357Z,8.40
2019-04-22T03:35:15.458Z,8.36
2019-04-22T03:37:09.538Z,8.31
2019-04-22T03:59:31.818Z,8.16
2019-04-22T04:04:26.064Z,8.06
2019-04-22T04:09:24.079Z,8.04
2019-04-22T04:14:26.719Z,8.01
2019-04-22T04:16:56.119Z,7.98
2019-04-22T04:19:54.244Z,7.98
2019-04-22T04:21:48.505Z,7.97
2019-04-22T04:32:16.484Z,7.99
2019-04-22T04:34:49.344Z,7.98
2019-04-22T04:39:28.794Z,7.95
2019-04-22T04:42:05.368Z,8.01
2019-04-22T04:44:35.089Z,8.03
2019-04-22T04:46:58.751Z,8.06
2019-04-22T04:49:34.910Z,8.09
2019-04-22T04:52:03.526Z,8.09
2019-04-22T05:02:06.345Z,8.24
2019-04-22T05:04:37.246Z,8.25
2019-04-22T05:12:01.910Z,8.39
2019-04-22T05:14:48.900Z,8.47
2019-04-22T05:17:18.424Z,8.57
2019-04-22T05:19:36.086Z,8.70
2019-04-22T05:22:14.888Z,8.84
2019-04-22T05:24:48.522Z,9.01
2019-04-22T05:30:00.187Z,9.42
2019-04-22T05:32:13.325Z,9.59
2019-04-22T05:34:42.203Z,9.78
2019-04-22T05:37:14.262Z,9.95
2019-04-22T05:39:43.678Z,10.12
2019-04-22T05:42:16.393Z,10.35
2019-04-22T05:44:47.958Z,10.53
2019-04-22T05:47:14.801Z,10.72
2019-04-22T05:49:39.334Z,10.89
2019-04-22T05:52:12.517Z,11.08
2019-04-22T05:54:38.638Z,11.24
2019-04-22T05:57:14.387Z,11.42
2019-04-22T05:59:46.233Z,11.62
2019-04-22T06:04:44.962Z,11.96
2019-04-22T06:07:13.781Z,12.12
2019-04-22T06:09:38.838Z,12.24
2019-04-22T06:12:14.791Z,12.32
2019-04-22T06:14:47.993Z,12.49
2019-04-22T06:17:24.956Z,12.68
2019-04-22T06:19:50.873Z,12.76
2019-04-22T06:22:30.351Z,12.95
2019-04-22T06:24:49.426Z,13.06
2019-04-22T06:27:21.205Z,13.08
2019-04-22T06:29:46.154Z,13.25
2019-04-22T06:32:31.519Z,13.34
2019-04-22T06:34:48.249Z,13.41
2019-04-22T06:39:50.986Z,13.83
2019-04-22T06:42:21.897Z,14.02
2019-04-22T06:44:51.659Z,14.17
2019-04-22T06:47:40.107Z,14.31
2019-04-22T06:49:49.532Z,14.40
2019-04-22T06:54:54.914Z,14.61
2019-04-22T06:57:24.242Z,14.64
2019-04-22T06:59:54.872Z,14.82
2019-04-22T07:02:30.731Z,14.90
2019-04-22T07:04:52.008Z,15.08
2019-04-22T07:07:21.735Z,15.24
2019-04-22T07:09:54.304Z,15.40
2019-04-22T07:12:26.043Z,15.54
2019-04-22T07:14:55.897Z,15.68
2019-04-22T07:17:23.166Z,15.74
2019-04-22T07:19:47.548Z,15.85
2019-04-22T07:22:21.502Z,16.00
2019-04-22T07:24:55.904Z,16.11
2019-04-22T07:27:22.238Z,16.31
2019-04-22T07:29:55.358Z,16.56
2019-04-22T07:32:39.720Z,16.56
2019-04-22T07:34:53.616Z,16.41
2019-04-22T07:37:31.666Z,16.12
2019-04-22T07:39:51.392Z,16.12
2019-04-22T07:42:26.223Z,16.06
2019-04-22T07:44:54.889Z,16.06
2019-04-22T07:47:34.148Z,16.02
2019-04-22T07:50:12.804Z,15.93
2019-04-22T07:52:24.601Z,15.90
2019-04-22T07:54:52.398Z,15.87
2019-04-22T07:57:28.403Z,15.83
2019-04-22T07:59:57.557Z,15.93
2019-04-22T08:02:23.640Z,15.92
2019-04-22T08:10:04.548Z,15.97
2019-04-22T08:12:29.659Z,16.08
2019-04-22T08:14:53.728Z,16.06
2019-04-22T08:17:53.399Z,16.14
2019-04-22T08:19:59.221Z,16.24
2019-04-22T08:22:21.401Z,16.23
2019-04-22T08:24:56.127Z,16.37
2019-04-22T08:27:24.602Z,16.47
2019-04-22T08:30:07.430Z,16.54
2019-04-22T08:32:29.904Z,16.65
2019-04-22T08:34:59.165Z,16.77
2019-04-22T08:40:01.678Z,16.83
2019-04-22T08:42:36.605Z,16.94
2019-04-22T08:47:30.974Z,16.92
2019-04-22T08:50:04.847Z,16.96
2019-04-22T08:52:31.871Z,16.98
2019-04-22T08:55:04.065Z,16.99
2019-04-22T08:57:34.709Z,17.14
2019-04-22T09:00:14.481Z,17.20
2019-04-22T09:02:32.748Z,17.35
2019-04-22T09:05:00.095Z,17.40
2019-04-22T09:15:20.614Z,17.52
2019-04-22T09:17:31.501Z,17.64
2019-04-22T09:20:00.267Z,17.74
2019-04-22T09:22:26.360Z,17.81
2019-04-22T09:24:56.063Z,17.81
2019-04-22T09:29:58.530Z,17.88
2019-04-22T09:32:32.941Z,17.87
2019-04-22T09:37:34.679Z,18.13
2019-04-22T09:40:04.650Z,18.07
2019-04-22T09:42:37.136Z,18.06
2019-04-22T09:45:04.072Z,18.11
2019-04-22T09:47:33.839Z,18.19
2019-04-22T09:50:03.740Z,18.24
2019-04-22T09:52:51.618Z,18.21
2019-04-22T09:55:08.306Z,18.21
2019-04-22T09:57:35.761Z,18.32
2019-04-22T10:00:10.848Z,18.31
2019-04-22T10:02:42.689Z,18.31
2019-04-22T10:05:09.125Z,18.32
2019-04-22T10:07:31.823Z,18.69
2019-04-22T10:10:09.954Z,18.87
2019-04-22T10:12:36.607Z,18.85
2019-04-22T10:15:00.135Z,18.84
2019-04-22T10:17:31.641Z,18.92
2019-04-22T10:19:59.659Z,18.90
2019-04-22T10:22:43.659Z,18.96
2019-04-22T10:25:05.087Z,18.95
2019-04-22T10:27:35.095Z,19.01
2019-04-22T10:30:04.426Z,19.13
2019-04-22T10:32:33.447Z,19.33
2019-04-22T10:34:55.543Z,19.42
2019-04-22T10:37:20.442Z,19.52
2019-04-22T10:39:56.225Z,19.60
2019-04-22T10:42:18.950Z,19.60
2019-04-22T10:44:48.507Z,19.60
2019-04-22T10:47:18.113Z,19.67
2019-04-22T10:49:46.731Z,19.54
2019-04-22T10:52:16.391Z,19.58
2019-04-22T10:54:45.477Z,19.52
2019-04-22T10:57:14.125Z,19.72
2019-04-22T10:59:42.701Z,19.72
2019-04-22T11:02:11.699Z,19.74
2019-04-22T11:04:40.560Z,19.75
2019-04-22T11:07:10.993Z,19.81
2019-04-22T11:09:50.752Z,19.86
2019-04-22T11:12:15.454Z,20.02
2019-04-22T11:14:41.865Z,20.02
2019-04-22T11:17:09.489Z,20.01
2019-04-22T11:19:39.345Z,19.93
2019-04-22T11:22:18.101Z,20.02
2019-04-22T11:24:38.903Z,20.12
2019-04-22T11:27:08.345Z,20.09
2019-04-22T11:29:37.475Z,20.34
2019-04-22T11:32:06.317Z,20.34
2019-04-22T11:34:35.422Z,20.24
2019-04-22T11:37:05.165Z,20.09
2019-04-22T11:39:36.488Z,19.97
2019-04-22T11:42:04.501Z,19.93
2019-04-22T11:44:33.045Z,20.04
2019-04-22T11:47:01.674Z,20.04
2019-04-22T11:49:30.145Z,20.29
2019-04-22T11:51:58.990Z,20.44
2019-04-22T11:54:28.563Z,20.44
2019-04-22T11:56:57.041Z,20.36
2019-04-22T11:59:26.723Z,20.33
2019-04-22T12:01:55.361Z,20.28
2019-04-22T12:04:23.816Z,20.36
2019-04-22T12:06:53.811Z,20.38
2019-04-22T12:09:23.658Z,20.36
2019-04-22T12:11:53.796Z,20.60
2019-04-22T12:14:22.394Z,20.73
2019-04-22T12:16:50.788Z,20.94
2019-04-22T12:19:19.146Z,20.84
2019-04-22T12:21:49.068Z,20.77
2019-04-22T12:24:17.483Z,20.73
2019-04-22T12:26:46.407Z,20.81
2019-04-22T12:29:15.414Z,20.98
2019-04-22T12:31:45.162Z,21.12
2019-04-22T12:34:13.587Z,21.12
2019-04-22T12:36:42.732Z,21.26
2019-04-22T12:39:11.621Z,21.27
2019-04-22T12:41:40.191Z,21.12
2019-04-22T12:44:09.349Z,21.02
2019-04-22T12:46:38.411Z,20.96
2019-04-22T12:49:08.014Z,21.02
2019-04-22T12:51:36.775Z,20.98
2019-04-22T12:54:06.738Z,21.20
2019-04-22T12:56:35.488Z,21.17
2019-04-22T12:59:05.570Z,21.16
2019-04-22T13:01:35.071Z,21.32
2019-04-22T13:04:07.833Z,21.29
2019-04-22T13:06:33.740Z,21.37
2019-04-22T13:09:02.271Z,21.33
2019-04-22T13:11:34.159Z,21.23
2019-04-22T13:14:00.993Z,21.34
2019-04-22T13:16:29.444Z,21.39
2019-04-22T13:19:01.956Z,21.69
2019-04-22T13:21:28.929Z,21.85
2019-04-22T13:23:57.277Z,21.74
2019-04-22T13:26:27.181Z,21.65
2019-04-22T13:28:56.933Z,21.58
2019-04-22T13:31:26.837Z,21.55
2019-04-22T13:33:58.057Z,21.55
2019-04-22T13:36:27.660Z,21.59
2019-04-22T13:38:55.503Z,21.72
2019-04-22T13:41:31.696Z,21.79
2019-04-22T13:43:54.015Z,21.74
2019-04-22T13:46:22.425Z,21.82
2019-04-22T13:49:14.654Z,21.98
2019-04-22T13:56:45.101Z,21.97
2019-04-22T13:59:03.107Z,21.97
2019-04-22T14:01:23.008Z,22.02
2019-04-22T14:04:02.660Z,21.87
2019-04-22T14:06:31.219Z,21.83
2019-04-22T14:09:01.027Z,21.82
2019-04-22T14:11:37.645Z,21.77
2019-04-22T14:14:00.833Z,21.79
2019-04-22T14:16:31.016Z,21.90
2019-04-22T14:19:00.227Z,21.97
2019-04-22T14:21:28.670Z,21.92
2019-04-22T14:23:58.413Z,21.88
2019-04-22T14:26:28.470Z,22.04
2019-04-22T14:28:57.589Z,21.99
2019-04-22T14:31:26.715Z,22.11
2019-04-22T14:33:59.365Z,22.08
2019-04-22T14:36:25.449Z,22.06
2019-04-22T14:38:54.421Z,22.02
2019-04-22T14:41:42.577Z,21.95
2019-04-22T14:45:05.412Z,21.93
2019-04-22T14:46:51.157Z,21.98
2019-04-22T14:49:16.637Z,21.94
2019-04-22T14:51:44.148Z,21.91
2019-04-22T14:54:10.110Z,21.98
2019-04-22T14:56:24.357Z,21.94
2019-04-22T14:58:53.120Z,21.91
2019-04-22T15:01:21.712Z,21.85
2019-04-22T15:03:50.436Z,21.92
2019-04-22T15:06:20.141Z,21.91
2019-04-22T15:08:48.992Z,21.83
2019-04-22T15:11:17.402Z,21.81
2019-04-22T15:13:47.360Z,21.82
2019-04-22T15:16:33.903Z,21.84
2019-04-22T15:19:04.213Z,21.77
2019-04-22T15:21:32.708Z,21.80
2019-04-22T15:24:02.742Z,21.76
2019-04-22T15:26:32.622Z,21.73
2019-04-22T15:29:01.092Z,21.70
2019-04-22T15:31:29.525Z,21.69
2019-04-22T15:33:58.416Z,21.75
2019-04-22T15:36:27.977Z,21.77
2019-04-22T15:38:57.595Z,21.75
2019-04-22T15:41:26.109Z,21.68
2019-04-22T15:43:54.486Z,21.67
2019-04-22T15:46:23.507Z,21.62
2019-04-22T15:48:52.029Z,21.61
2019-04-22T15:51:20.733Z,21.66
2019-04-22T15:53:49.541Z,21.69
2019-04-22T15:56:18.809Z,21.74
2019-04-22T15:58:47.984Z,21.73
2019-04-22T16:01:25.620Z,21.73
2019-04-22T16:03:47.077Z,21.73
2019-04-22T16:06:15.786Z,21.67
2019-04-22T16:08:45.696Z,21.63
2019-04-22T16:11:14.232Z,21.61
2019-04-22T16:13:42.634Z,21.54
2019-04-22T16:16:12.389Z,21.42
2019-04-22T16:18:42.153Z,21.36
2019-04-22T16:21:11.310Z,21.31
2019-04-22T16:23:44.726Z,21.31
2019-04-22T16:26:15.254Z,21.29
2019-04-22T16:28:45.181Z,21.20
2019-04-22T16:31:13.673Z,21.14
2019-04-22T16:33:45.406Z,21.10
2019-04-22T16:36:13.095Z,21.06
2019-04-22T16:38:42.793Z,21.02
2019-04-22T16:41:12.694Z,21.01
2019-04-22T16:43:42.865Z,20.96
2019-04-22T16:46:11.724Z,20.93
2019-04-22T16:48:40.166Z,20.90
2019-04-22T16:51:09.901Z,20.86
2019-04-22T16:53:38.985Z,20.80
2019-04-22T16:56:08.712Z,20.75
2019-04-22T16:58:37.241Z,20.68
2019-04-22T17:01:07.605Z,20.64
2019-04-22T17:03:38.698Z,20.60
2019-04-22T17:06:19.320Z,20.56
2019-04-22T17:08:48.684Z,20.52
2019-04-22T17:11:17.911Z,20.43
2019-04-22T17:13:47.998Z,20.37
2019-04-22T17:16:18.000Z,20.21
2019-04-22T17:18:47.202Z,20.21
2019-04-22T17:21:15.699Z,20.23
2019-04-22T17:23:45.568Z,20.14
2019-04-22T17:26:14.768Z,20.02
2019-04-22T17:28:43.817Z,19.90
2019-04-22T17:31:12.968Z,19.83
2019-04-22T17:33:41.481Z,19.73
2019-04-22T17:36:10.197Z,19.66
2019-04-22T17:38:48.702Z,19.57
2019-04-22T17:41:22.095Z,19.45
2019-04-22T17:44:09.800Z,19.41
2019-04-22T17:46:40.214Z,19.34
2019-04-22T17:49:21.893Z,19.25
2019-04-22T17:52:13.887Z,19.17
2019-04-22T17:54:38.478Z,19.09
2019-04-22T17:57:08.146Z,19.00
2019-04-22T17:59:38.173Z,18.93
2019-04-22T18:02:03.068Z,18.87
2019-04-22T18:04:18.056Z,18.77
2019-04-22T18:07:15.082Z,18.70
2019-04-22T18:09:57.925Z,18.64
2019-04-22T18:12:16.307Z,18.58
2019-04-22T18:17:11.430Z,18.46
2019-04-22T18:19:36.431Z,18.36
2019-04-22T18:22:01.142Z,18.33
2019-04-22T18:24:26.416Z,18.24
2019-04-22T18:27:14.590Z,18.19
2019-04-22T18:29:41.795Z,18.11
2019-04-22T18:31:58.207Z,18.05
2019-04-22T18:34:30.873Z,17.96
2019-04-22T18:37:03.963Z,17.91
2019-04-22T18:39:40.493Z,17.86
2019-04-22T18:42:07.607Z,17.77
2019-04-22T18:44:44.042Z,17.72
2019-04-22T18:47:08.074Z,17.63
2019-04-22T18:49:37.387Z,17.55
2019-04-22T18:52:28.170Z,17.44
2019-04-22T18:55:04.238Z,17.38
2019-04-22T18:57:27.373Z,17.31
2019-04-22T18:59:47.302Z,17.22
2019-04-22T19:02:16.304Z,17.16
2019-04-22T19:04:53.910Z,17.07
2019-04-22T19:07:44.265Z,17.04
2019-04-22T19:10:10.485Z,16.96
2019-04-22T19:12:41.566Z,16.92
2019-04-22T19:15:09.318Z,16.82
2019-04-22T19:20:08.264Z,16.67
2019-04-22T19:22:50.416Z,16.63
2019-04-22T19:25:04.137Z,16.53
2019-04-22T19:27:37.747Z,16.49
2019-04-22T19:30:12.230Z,16.43
2019-04-22T19:32:41.920Z,16.39
2019-04-22T19:35:04.899Z,16.36
2019-04-22T19:37:35.885Z,16.28
2019-04-22T19:40:25.751Z,16.26
2019-04-22T19:42:49.505Z,16.24
2019-04-22T19:45:08.824Z,16.25
2019-04-22T19:47:56.570Z,16.23
2019-04-22T19:50:12.868Z,16.17
2019-04-22T19:52:39.960Z,16.16
2019-04-22T19:55:12.730Z,16.09
2019-04-22T19:57:34.511Z,16.02
2019-04-22T20:00:10.885Z,16.00
2019-04-22T20:02:44.897Z,15.97
2019-04-22T20:05:22.043Z,15.91
2019-04-22T20:07:41.398Z,15.86
2019-04-22T20:10:20.785Z,15.79
2019-04-22T20:12:46.754Z,15.78
2019-04-22T20:15:13.889Z,15.72
2019-04-22T20:18:11.849Z,15.65
2019-04-22T20:20:23.240Z,15.61
2019-04-22T20:22:47.094Z,15.55
2019-04-22T20:25:08.602Z,15.49
2019-04-22T20:27:47.343Z,15.42
2019-04-22T20:30:23.174Z,15.39
2019-04-22T20:32:47.389Z,15.33
2019-04-22T20:35:21.004Z,15.29
2019-04-22T20:37:54.789Z,15.26
2019-04-22T20:40:21.874Z,15.22
2019-04-22T20:42:54.414Z,15.16
2019-04-22T20:45:29.105Z,15.16
2019-04-22T20:47:42.832Z,15.14
2019-04-22T20:50:23.804Z,15.11
2019-04-22T20:52:59.664Z,15.02
2019-04-22T20:55:16.165Z,14.87
2019-04-22T20:57:56.107Z,14.76
2019-04-22T21:00:16.897Z,14.58
2019-04-22T21:02:40.222Z,14.49
2019-04-22T21:05:14.311Z,14.47
2019-04-22T21:07:53.940Z,14.38
2019-04-22T21:10:15.618Z,14.30
2019-04-22T21:12:41.824Z,14.25
2019-04-22T21:15:29.651Z,14.18
2019-04-22T21:17:53.579Z,14.07
2019-04-22T21:20:26.259Z,14.02
2019-04-22T21:22:48.278Z,13.95
2019-04-22T21:25:15.620Z,13.90
2019-04-22T21:27:54.392Z,13.88
2019-04-22T21:30:23.109Z,13.85
2019-04-22T21:32:49.424Z,13.75
2019-04-22T21:35:35.240Z,13.72
2019-04-22T21:38:00.417Z,13.64
2019-04-22T21:40:24.041Z,13.63
2019-04-22T21:42:59.578Z,13.58
2019-04-22T21:45:20.798Z,13.55
2019-04-22T21:48:05.236Z,13.51
2019-04-22T21:53:00.847Z,13.48
2019-04-22T21:55:29.773Z,13.43
2019-04-22T21:58:05.090Z,13.43
2019-04-22T22:03:11.351Z,13.40
2019-04-22T22:05:28.654Z,13.37
2019-04-22T22:07:52.129Z,13.36
2019-04-22T22:10:33.917Z,13.33
2019-04-22T22:13:06.690Z,13.32
2019-04-22T22:15:37.641Z,13.30
2019-04-22T22:18:02.033Z,13.26
2019-04-22T22:20:30.964Z,13.24
2019-04-22T22:23:08.003Z,13.25
2019-04-22T22:25:33.649Z,13.22
2019-04-22T22:28:17.050Z,13.22
2019-04-22T22:30:55.156Z,13.19
2019-04-22T22:33:06.891Z,13.17
2019-04-22T22:35:36.182Z,13.13
2019-04-22T22:38:05.470Z,13.10
2019-04-22T22:40:23.227Z,13.09
2019-04-22T22:42:49.932Z,13.09
2019-04-22T22:45:28.039Z,13.08
2019-04-22T22:48:15.006Z,13.04
2019-04-22T22:50:40.332Z,13.05
2019-04-22T22:53:16.980Z,13.03
2019-04-22T22:55:41.033Z,13.01
2019-04-22T22:58:14.259Z,13.01
2019-04-22T23:00:35.125Z,13.01
2019-04-22T23:03:38.419Z,13.02
2019-04-22T23:05:45.330Z,12.99
2019-04-22T23:08:17.024Z,12.96
2019-04-22T23:10:52.207Z,12.94
2019-04-22T23:13:19.004Z,12.94
2019-04-22T23:15:37.143Z,12.90
2019-04-22T23:17:50.103Z,12.91
2019-04-22T23:20:28.992Z,12.90
2019-04-22T23:23:14.067Z,12.91
2019-04-22T23:25:44.797Z,12.87
2019-04-22T23:28:16.076Z,12.86
2019-04-22T23:30:52.894Z,12.85
2019-04-22T23:33:42.773Z,12.81
2019-04-22T23:36:10.745Z,12.79
2019-04-22T23:38:51.898Z,12.74
2019-04-22T23:46:37.949Z,12.68
2019-04-22T23:49:10.221Z,12.67
2019-04-22T23:51:41.881Z,12.65
2019-04-22T23:54:22.256Z,12.63
2019-04-22T23:56:33.582Z,12.61
2019-04-22T23:59:13.199Z,12.59
